createdAt,value
2023-01-21T00:01:02.900Z,3.80
2023-01-21T00:03:29.763Z,3.80
2023-01-21T00:05:58.316Z,3.80
2023-01-21T00:08:26.415Z,3.80
2023-01-21T00:10:53.392Z,3.80
2023-01-21T00:13:20.204Z,3.80
2023-01-21T00:15:47.039Z,3.80
2023-01-21T00:18:13.940Z,3.80
2023-01-21T00:20:41.211Z,3.80
2023-01-21T00:23:08.001Z,3.80
2023-01-21T00:25:36.686Z,3.70
2023-01-21T00:28:04.580Z,3.70
2023-01-21T00:30:31.553Z,3.70
2023-01-21T00:32:58.307Z,3.70
2023-01-21T00:35:25.137Z,3.70
2023-01-21T00:37:52.906Z,3.60
2023-01-21T00:40:19.953Z,3.60
2023-01-21T00:42:46.743Z,3.60
2023-01-21T00:45:13.452Z,3.50
2023-01-21T00:47:40.522Z,3.50
2023-01-21T00:50:08.888Z,3.40
2023-01-21T00:52:37.017Z,3.40
2023-01-21T00:55:04.666Z,3.40
2023-01-21T00:57:31.412Z,3.30
2023-01-21T00:59:58.394Z,3.30
2023-01-21T01:02:26.563Z,3.30
2023-01-21T01:04:54.271Z,3.30
2023-01-21T01:07:21.007Z,3.20
2023-01-21T01:09:47.747Z,3.20
2023-01-21T01:12:15.530Z,3.20
2023-01-21T01:14:42.237Z,3.20
2023-01-21T01:17:09.256Z,3.20
2023-01-21T01:19:35.989Z,3.20
2023-01-21T01:22:02.770Z,3.20
2023-01-21T01:24:29.722Z,3.20
2023-01-21T01:26:56.427Z,3.20
2023-01-21T01:29:23.192Z,3.10
2023-01-21T01:31:49.935Z,3.00
2023-01-21T01:34:18.803Z,3.00
2023-01-21T01:36:45.451Z,2.90
2023-01-21T01:39:12.232Z,2.90
2023-01-21T01:41:38.927Z,2.80
2023-01-21T01:44:26.808Z,2.80
2023-01-21T01:46:56.719Z,2.70
2023-01-21T01:49:23.753Z,2.70
2023-01-21T01:51:58.551Z,2.70
2023-01-21T01:54:32.106Z,2.70
2023-01-21T01:57:04.566Z,2.70
2023-01-21T01:59:33.045Z,2.70
2023-01-21T02:02:05.542Z,2.70
2023-01-21T02:04:38.623Z,2.70
2023-01-21T02:07:05.450Z,2.70
2023-01-21T02:09:32.510Z,2.70
2023-01-21T02:12:01.386Z,2.70
2023-01-21T02:14:30.553Z,2.70
2023-01-21T02:17:04.990Z,2.70
2023-01-21T02:20:09.126Z,2.70
2023-01-21T02:22:56.579Z,2.60
2023-01-21T02:25:50.974Z,2.70
2023-01-21T02:28:55.423Z,2.70
2023-01-21T02:31:50.716Z,2.60
2023-01-21T02:34:48.967Z,2.60
2023-01-21T02:37:40.358Z,2.60
2023-01-21T02:40:16.095Z,2.60
2023-01-21T02:42:47.076Z,2.60
2023-01-21T02:45:19.268Z,2.60
2023-01-21T02:48:06.705Z,2.50
2023-01-21T02:50:52.434Z,2.50
2023-01-21T02:53:26.910Z,2.50
2023-01-21T02:55:54.600Z,2.50
2023-01-21T02:58:26.622Z,2.50
2023-01-21T03:01:32.438Z,2.40
2023-01-21T03:04:13.926Z,2.40
2023-01-21T03:07:03.954Z,2.40
2023-01-21T03:09:33.223Z,2.40
2023-01-21T03:12:09.418Z,2.40
2023-01-21T03:15:08.411Z,2.40
2023-01-21T03:17:59.317Z,2.30
2023-01-21T03:20:31.316Z,2.30
2023-01-21T03:23:12.828Z,2.30
2023-01-21T03:25:41.530Z,2.20
2023-01-21T03:28:24.828Z,2.20
2023-01-21T03:31:07.526Z,2.20
2023-01-21T03:33:39.850Z,2.10
2023-01-21T03:36:16.437Z,2.10
2023-01-21T03:38:49.934Z,2.00
2023-01-21T03:41:34.655Z,2.00
2023-01-21T03:44:02.597Z,2.00
2023-01-21T03:46:35.156Z,1.90
2023-01-21T03:49:14.292Z,1.80
2023-01-21T03:51:46.297Z,1.80
2023-01-21T03:54:13.474Z,1.70
2023-01-21T03:56:40.226Z,1.70
2023-01-21T03:59:09.276Z,1.60
2023-01-21T04:01:36.072Z,1.60
2023-01-21T04:04:02.775Z,1.50
2023-01-21T04:06:29.495Z,1.50
2023-01-21T04:08:57.237Z,1.40
2023-01-21T04:11:24.080Z,1.40
2023-01-21T04:13:53.270Z,1.40
2023-01-21T04:16:21.235Z,1.40
2023-01-21T04:18:48.026Z,1.30
2023-01-21T04:21:15.390Z,1.30
2023-01-21T04:23:42.214Z,1.20
2023-01-21T04:26:08.963Z,1.20
2023-01-21T04:28:37.702Z,1.30
2023-01-21T04:31:04.669Z,1.10
2023-01-21T04:33:31.383Z,1.10
2023-01-21T04:36:00.606Z,1.10
2023-01-21T04:38:28.144Z,1.00
2023-01-21T04:40:55.145Z,0.90
2023-01-21T04:43:21.899Z,0.90
2023-01-21T04:45:50.207Z,0.80
2023-01-21T04:48:17.801Z,0.70
2023-01-21T04:50:46.548Z,0.60
2023-01-21T04:53:13.730Z,0.60
2023-01-21T04:55:40.404Z,0.50
2023-01-21T04:58:07.161Z,0.40
2023-01-21T05:00:33.942Z,0.40
2023-01-21T05:03:00.694Z,0.40
2023-01-21T05:05:27.623Z,0.40
2023-01-21T05:07:54.796Z,0.40
2023-01-21T05:10:22.221Z,0.40
2023-01-21T05:12:49.094Z,0.40
2023-01-21T05:15:15.898Z,0.40
2023-01-21T05:17:42.700Z,0.40
2023-01-21T05:20:10.360Z,0.50
2023-01-21T05:22:37.263Z,0.50
2023-01-21T05:25:06.045Z,0.50
2023-01-21T05:27:34.686Z,0.50
2023-01-21T05:30:01.565Z,0.50
2023-01-21T05:32:28.267Z,0.50
2023-01-21T05:34:55.064Z,0.50
2023-01-21T05:37:22.778Z,0.40
2023-01-21T05:39:49.482Z,0.40
2023-01-21T05:42:18.685Z,0.30
2023-01-21T05:44:45.609Z,0.20
2023-01-21T05:47:12.655Z,0.10
2023-01-21T05:49:39.331Z,-0.10
2023-01-21T05:52:07.183Z,-0.20
2023-01-21T05:54:33.860Z,-0.40
2023-01-21T05:57:00.522Z,-0.50
2023-01-21T05:59:27.228Z,-0.50
2023-01-21T06:01:56.348Z,-0.60
2023-01-21T06:04:28.373Z,-0.60
2023-01-21T06:06:55.049Z,-0.70
2023-01-21T06:09:22.026Z,-0.70
2023-01-21T06:11:48.864Z,-0.80
2023-01-21T06:14:17.182Z,-0.90
2023-01-21T06:16:45.159Z,-1.00
2023-01-21T06:19:14.190Z,-1.00
2023-01-21T06:21:40.915Z,-1.10
2023-01-21T06:24:10.810Z,-1.20
2023-01-21T06:26:37.520Z,-1.30
2023-01-21T06:29:04.513Z,-1.30
2023-01-21T06:31:33.661Z,-1.30
2023-01-21T06:34:00.381Z,-1.30
2023-01-21T06:36:27.337Z,-1.40
2023-01-21T06:38:54.296Z,-1.40
2023-01-21T06:41:20.994Z,-1.50
2023-01-21T06:43:47.684Z,-1.50
2023-01-21T06:46:15.149Z,-1.50
2023-01-21T06:48:43.293Z,-1.60
2023-01-21T06:51:10.181Z,-1.70
2023-01-21T06:53:37.058Z,-1.70
2023-01-21T06:56:03.996Z,-1.70
2023-01-21T06:58:30.731Z,-1.80
2023-01-21T07:00:57.882Z,-1.80
2023-01-21T07:03:24.589Z,-1.80
2023-01-21T07:05:51.307Z,-1.80
2023-01-21T07:08:18.066Z,-1.90
2023-01-21T07:10:47.672Z,-1.90
2023-01-21T07:13:14.573Z,-1.90
2023-01-21T07:15:41.379Z,-1.90
2023-01-21T07:18:08.096Z,-2.00
2023-01-21T07:20:34.978Z,-2.00
2023-01-21T07:23:01.708Z,-2.00
2023-01-21T07:25:31.918Z,-2.10
2023-01-21T07:27:59.806Z,-2.10
2023-01-21T07:30:30.442Z,-2.10
2023-01-21T07:32:57.205Z,-2.10
2023-01-21T07:35:25.639Z,-2.20
2023-01-21T07:37:52.411Z,-2.20
2023-01-21T07:40:20.313Z,-2.20
2023-01-21T07:42:52.879Z,-2.30
2023-01-21T07:45:20.748Z,-2.30
2023-01-21T07:47:47.688Z,-2.30
2023-01-21T07:50:15.345Z,-2.30
2023-01-21T07:52:42.039Z,-2.30
2023-01-21T07:55:12.386Z,-2.40
2023-01-21T07:57:39.523Z,-2.40
2023-01-21T08:00:07.120Z,-2.40
2023-01-21T08:02:33.979Z,-2.40
2023-01-21T08:05:01.057Z,-2.30
2023-01-21T08:07:29.065Z,-2.30
2023-01-21T08:09:58.979Z,-2.30
2023-01-21T08:12:27.242Z,-2.30
2023-01-21T08:14:54.272Z,-2.20
2023-01-21T08:17:20.983Z,-2.20
2023-01-21T08:19:47.719Z,-2.10
2023-01-21T08:22:14.439Z,-2.00
2023-01-21T08:24:41.160Z,-2.00
2023-01-21T08:27:08.049Z,-1.90
2023-01-21T08:29:36.364Z,-1.90
2023-01-21T08:32:03.112Z,-1.80
2023-01-21T08:34:29.854Z,-1.70
2023-01-21T08:36:58.224Z,-1.60
2023-01-21T08:39:25.949Z,-1.50
2023-01-21T08:41:53.840Z,-1.40
2023-01-21T08:44:23.045Z,-1.20
2023-01-21T08:46:49.814Z,-1.10
2023-01-21T08:49:16.750Z,-0.80
2023-01-21T08:51:43.590Z,-0.70
2023-01-21T08:54:10.401Z,-0.50
2023-01-21T08:56:39.696Z,-0.50
2023-01-21T08:59:07.005Z,-0.40
2023-01-21T09:01:36.183Z,-0.30
2023-01-21T09:04:03.030Z,-0.20
2023-01-21T09:06:30.383Z,-0.10
2023-01-21T09:08:58.206Z,0.00
2023-01-21T09:11:27.444Z,0.10
2023-01-21T09:13:54.193Z,0.20
2023-01-21T09:16:23.166Z,0.20
2023-01-21T09:18:50.199Z,0.30
2023-01-21T09:21:19.491Z,0.30
2023-01-21T09:23:46.304Z,0.30
2023-01-21T09:26:24.382Z,0.30
2023-01-21T09:29:01.600Z,0.30
2023-01-21T09:31:30.569Z,0.40
2023-01-21T09:34:00.188Z,0.50
2023-01-21T09:36:32.154Z,0.60
2023-01-21T09:39:01.138Z,0.70
2023-01-21T09:41:29.981Z,0.80
2023-01-21T09:44:22.884Z,0.90
2023-01-21T09:46:56.283Z,1.00
2023-01-21T09:49:43.056Z,1.00
2023-01-21T09:52:35.954Z,1.10
2023-01-21T09:55:03.950Z,1.20
2023-01-21T09:57:56.345Z,1.30
2023-01-21T10:00:31.224Z,1.30
2023-01-21T10:03:34.847Z,1.40
2023-01-21T10:06:33.025Z,1.30
2023-01-21T10:09:21.432Z,1.30
2023-01-21T10:12:19.221Z,1.30
2023-01-21T10:15:05.514Z,1.30
2023-01-21T10:17:54.342Z,1.30
2023-01-21T10:20:26.844Z,1.40
2023-01-21T10:23:00.661Z,1.60
2023-01-21T10:25:33.007Z,1.70
2023-01-21T10:28:24.407Z,1.80
2023-01-21T10:30:58.327Z,1.90
2023-01-21T10:33:26.613Z,1.90
2023-01-21T10:36:24.918Z,1.90
2023-01-21T10:38:57.538Z,2.00
2023-01-21T10:41:49.176Z,2.10
2023-01-21T10:44:45.014Z,2.10
2023-01-21T10:47:38.909Z,2.20
2023-01-21T10:50:39.623Z,2.20
2023-01-21T10:53:24.275Z,2.10
2023-01-21T10:56:03.109Z,2.10
2023-01-21T10:58:46.113Z,2.10
2023-01-21T11:01:25.485Z,2.20
2023-01-21T11:04:00.845Z,2.20
2023-01-21T11:06:30.817Z,2.40
2023-01-21T11:09:02.890Z,2.40
2023-01-21T11:11:35.447Z,2.50
2023-01-21T11:14:03.709Z,2.60
2023-01-21T11:16:45.693Z,2.70
2023-01-21T11:19:32.653Z,2.80
2023-01-21T11:22:20.960Z,2.80
2023-01-21T11:24:49.984Z,2.80
2023-01-21T11:27:22.881Z,2.70
2023-01-21T11:29:50.623Z,2.70
2023-01-21T11:32:21.362Z,2.70
2023-01-21T11:34:51.661Z,2.70
2023-01-21T11:37:23.912Z,2.80
2023-01-21T11:40:14.935Z,2.80
2023-01-21T11:42:49.749Z,2.70
2023-01-21T11:45:37.163Z,2.70
2023-01-21T11:48:22.438Z,2.60
2023-01-21T11:50:49.208Z,2.70
2023-01-21T11:53:17.875Z,2.70
2023-01-21T11:55:53.184Z,2.70
2023-01-21T11:58:23.324Z,2.60
2023-01-21T12:00:54.640Z,2.60
2023-01-21T12:03:34.537Z,2.60
2023-01-21T12:06:02.170Z,2.60
2023-01-21T12:08:35.838Z,2.60
2023-01-21T12:11:05.030Z,2.60
2023-01-21T12:13:39.135Z,2.70
2023-01-21T12:16:39.869Z,2.70
2023-01-21T12:19:16.732Z,2.70
2023-01-21T12:22:04.754Z,2.70
2023-01-21T12:25:12.785Z,2.70
2023-01-21T12:27:51.927Z,2.70
2023-01-21T12:30:43.896Z,2.80
2023-01-21T12:33:31.440Z,2.80
2023-01-21T12:36:13.141Z,2.90
2023-01-21T12:38:46.413Z,2.90
2023-01-21T12:41:27.443Z,2.90
2023-01-21T12:44:16.104Z,2.90
2023-01-21T12:46:47.863Z,3.00
2023-01-21T12:49:31.465Z,3.00
2023-01-21T12:52:03.194Z,3.00
2023-01-21T12:54:44.051Z,3.10
2023-01-21T12:57:31.751Z,3.00
2023-01-21T13:00:29.381Z,3.10
2023-01-21T13:03:18.110Z,3.70
2023-01-21T13:06:02.427Z,4.30
2023-01-21T13:08:35.239Z,4.90
2023-01-21T13:11:30.638Z,5.40
2023-01-21T13:14:09.742Z,5.90
2023-01-21T13:16:41.475Z,5.80
2023-01-21T13:19:12.696Z,5.60
2023-01-21T13:21:58.192Z,5.30
2023-01-21T13:24:56.329Z,5.10
2023-01-21T13:27:34.245Z,4.90
2023-01-21T13:30:49.291Z,4.70
2023-01-21T13:33:30.942Z,4.60
2023-01-21T13:36:15.263Z,4.40
2023-01-21T13:39:00.310Z,4.40
2023-01-21T13:42:05.994Z,4.30
2023-01-21T13:44:50.615Z,4.20
2023-01-21T13:47:56.571Z,4.10
2023-01-21T13:51:05.070Z,4.10
2023-01-21T13:53:53.735Z,4.00
2023-01-21T13:56:55.789Z,4.00
2023-01-21T13:59:32.351Z,4.00
2023-01-21T14:02:21.992Z,4.00
2023-01-21T14:04:57.700Z,3.90
2023-01-21T14:07:30.627Z,3.90
2023-01-21T14:10:06.258Z,3.90
2023-01-21T14:13:25.901Z,3.90
2023-01-21T14:15:53.549Z,3.90
2023-01-21T14:18:40.520Z,3.90
2023-01-21T14:21:32.475Z,4.30
2023-01-21T14:24:12.270Z,4.30
2023-01-21T14:26:57.472Z,4.20
2023-01-21T14:29:50.954Z,4.20
2023-01-21T14:32:26.952Z,4.20
2023-01-21T14:35:02.721Z,4.10
2023-01-21T14:37:42.887Z,4.10
2023-01-21T14:40:17.947Z,4.10
2023-01-21T14:42:50.832Z,4.00
2023-01-21T14:45:25.688Z,4.00
2023-01-21T14:47:57.855Z,4.00
2023-01-21T14:50:47.821Z,4.00
2023-01-21T14:53:28.810Z,4.00
2023-01-21T14:56:34.871Z,4.00
2023-01-21T14:59:05.936Z,4.00
2023-01-21T15:01:47.301Z,4.00
2023-01-21T15:04:31.200Z,4.00
2023-01-21T15:07:08.833Z,3.90
2023-01-21T15:09:42.425Z,3.90
2023-01-21T15:12:21.699Z,3.90
2023-01-21T15:14:49.592Z,3.90
2023-01-21T15:17:46.155Z,3.90
2023-01-21T15:20:57.644Z,3.90
2023-01-21T15:23:33.377Z,3.90
2023-01-21T15:26:32.628Z,3.90
2023-01-21T15:29:23.946Z,3.90
2023-01-21T15:31:51.200Z,3.90
2023-01-21T15:34:22.761Z,3.90
2023-01-21T15:36:57.621Z,3.90
2023-01-21T15:39:33.984Z,3.90
2023-01-21T15:42:22.508Z,3.90
2023-01-21T15:44:57.444Z,3.90
2023-01-21T15:47:40.368Z,3.90
2023-01-21T15:50:36.908Z,3.90
2023-01-21T15:53:31.169Z,3.90
2023-01-21T15:56:43.300Z,3.90
2023-01-21T15:59:39.533Z,3.90
2023-01-21T16:02:32.329Z,3.90
2023-01-21T16:05:31.599Z,3.80
2023-01-21T16:08:21.128Z,3.80
2023-01-21T16:11:00.034Z,3.80
2023-01-21T16:13:43.453Z,3.80
2023-01-21T16:16:12.932Z,3.80
2023-01-21T16:19:03.353Z,3.80
2023-01-21T16:21:36.874Z,3.80
2023-01-21T16:24:10.019Z,3.80
2023-01-21T16:26:36.981Z,3.80
2023-01-21T16:29:13.299Z,3.80
2023-01-21T16:31:59.446Z,3.80
2023-01-21T16:34:29.015Z,3.80
2023-01-21T16:36:56.106Z,3.80
2023-01-21T16:39:23.724Z,3.80
2023-01-21T16:42:02.204Z,3.90
2023-01-21T16:44:29.431Z,3.90
2023-01-21T16:46:59.351Z,3.90
2023-01-21T16:49:35.601Z,3.90
2023-01-21T16:52:04.757Z,3.90
2023-01-21T16:54:33.163Z,3.90
2023-01-21T16:57:04.582Z,3.90
2023-01-21T16:59:40.091Z,3.80
2023-01-21T17:02:31.750Z,3.80
2023-01-21T17:05:05.213Z,3.80
2023-01-21T17:07:41.823Z,3.80
2023-01-21T17:10:15.047Z,3.90
2023-01-21T17:12:48.067Z,3.90
2023-01-21T17:15:28.610Z,3.90
2023-01-21T17:17:59.244Z,3.90
2023-01-21T17:20:45.960Z,4.00
2023-01-21T17:23:26.227Z,3.90
2023-01-21T17:26:00.748Z,3.90
2023-01-21T17:28:32.645Z,3.90
2023-01-21T17:31:26.831Z,3.90
2023-01-21T17:34:07.494Z,3.90
2023-01-21T17:36:38.856Z,3.80
2023-01-21T17:39:07.746Z,3.80
2023-01-21T17:41:46.334Z,3.80
2023-01-21T17:44:22.168Z,3.80
2023-01-21T17:46:52.334Z,3.80
2023-01-21T17:49:23.481Z,3.80
2023-01-21T17:51:53.764Z,3.80
2023-01-21T17:54:25.991Z,3.80
2023-01-21T17:57:00.268Z,3.80
2023-01-21T17:59:41.588Z,3.70
2023-01-21T18:02:18.768Z,3.70
2023-01-21T18:04:45.595Z,3.80
2023-01-21T18:07:25.729Z,3.80
2023-01-21T18:10:00.622Z,3.80
2023-01-21T18:12:27.450Z,3.80
2023-01-21T18:14:54.411Z,3.90
2023-01-21T18:17:24.761Z,3.90
2023-01-21T18:19:51.636Z,4.20
2023-01-21T18:22:32.159Z,4.30
2023-01-21T18:25:00.521Z,4.30
2023-01-21T18:27:27.409Z,4.20
2023-01-21T18:29:54.716Z,4.20
2023-01-21T18:32:21.461Z,4.20
2023-01-21T18:34:48.375Z,4.20
2023-01-21T18:37:19.574Z,4.30
2023-01-21T18:39:47.800Z,4.30
2023-01-21T18:42:17.014Z,4.30
2023-01-21T18:44:44.581Z,4.30
2023-01-21T18:47:12.636Z,4.20
2023-01-21T18:49:40.552Z,4.20
2023-01-21T18:52:10.233Z,4.10
2023-01-21T18:54:36.959Z,4.10
2023-01-21T18:57:03.724Z,4.10
2023-01-21T18:59:30.519Z,4.00
2023-01-21T19:01:57.628Z,4.00
2023-01-21T19:04:25.418Z,4.00
2023-01-21T19:06:55.549Z,4.00
2023-01-21T19:09:24.472Z,3.90
2023-01-21T19:11:52.947Z,3.90
2023-01-21T19:14:19.679Z,3.80
2023-01-21T19:16:48.566Z,3.80
2023-01-21T19:19:18.957Z,3.80
2023-01-21T19:21:47.164Z,3.80
2023-01-21T19:24:19.552Z,3.80
2023-01-21T19:26:46.378Z,3.80
2023-01-21T19:29:22.917Z,3.80
2023-01-21T19:31:50.093Z,3.70
2023-01-21T19:34:16.902Z,3.80
2023-01-21T19:36:44.942Z,3.70
2023-01-21T19:39:19.780Z,3.70
2023-01-21T19:41:46.560Z,3.70
2023-01-21T19:44:14.446Z,3.70
2023-01-21T19:46:41.591Z,3.70
2023-01-21T19:49:16.433Z,3.70
2023-01-21T19:51:44.712Z,3.60
2023-01-21T19:54:12.581Z,3.60
2023-01-21T19:56:41.354Z,3.60
2023-01-21T19:59:14.947Z,3.60
2023-01-21T20:01:41.917Z,3.80
2023-01-21T20:04:09.226Z,3.80
2023-01-21T20:06:40.422Z,3.80
2023-01-21T20:09:11.275Z,3.80
2023-01-21T20:11:38.085Z,3.80
2023-01-21T20:14:05.213Z,3.80
2023-01-21T20:16:34.255Z,3.80
2023-01-21T20:19:02.611Z,3.80
2023-01-21T20:21:30.734Z,3.80
2023-01-21T20:23:57.474Z,3.80
2023-01-21T20:26:27.650Z,3.80
2023-01-21T20:28:54.732Z,3.80
2023-01-21T20:31:22.605Z,3.80
2023-01-21T20:33:49.472Z,3.80
2023-01-21T20:36:22.738Z,3.80
2023-01-21T20:38:52.497Z,3.70
2023-01-21T20:41:19.872Z,3.80
2023-01-21T20:43:46.968Z,3.70
2023-01-21T20:46:27.909Z,3.70
2023-01-21T20:48:57.399Z,3.70
2023-01-21T20:51:24.514Z,3.70
2023-01-21T20:53:51.807Z,3.70
2023-01-21T20:56:28.867Z,3.70
2023-01-21T20:58:55.794Z,3.70
2023-01-21T21:01:25.743Z,3.70
2023-01-21T21:03:53.782Z,3.70
2023-01-21T21:06:25.839Z,3.70
2023-01-21T21:08:52.727Z,3.70
2023-01-21T21:11:19.628Z,3.70
2023-01-21T21:13:48.671Z,3.70
2023-01-21T21:16:26.265Z,3.70
2023-01-21T21:18:53.018Z,3.70
2023-01-21T21:21:23.693Z,3.70
2023-01-21T21:23:52.207Z,3.60
2023-01-21T21:26:23.154Z,3.60
2023-01-21T21:28:55.135Z,3.70
2023-01-21T21:31:23.691Z,3.70
2023-01-21T21:33:51.063Z,3.70
2023-01-21T21:36:21.565Z,3.70
2023-01-21T21:38:49.029Z,3.60
2023-01-21T21:41:36.712Z,3.60
2023-01-21T21:44:05.403Z,3.60
2023-01-21T21:46:51.241Z,3.60
2023-01-21T21:49:18.067Z,3.60
2023-01-21T21:51:45.807Z,3.60
2023-01-21T21:54:15.389Z,3.60
2023-01-21T21:56:44.555Z,3.60
2023-01-21T21:59:14.066Z,3.60
2023-01-21T22:01:42.804Z,3.70
2023-01-21T22:04:11.545Z,3.60
2023-01-21T22:06:38.514Z,3.70
2023-01-21T22:09:05.644Z,3.60
2023-01-21T22:11:32.470Z,3.70
2023-01-21T22:14:03.761Z,3.60
2023-01-21T22:16:31.587Z,3.70
2023-01-21T22:19:00.199Z,3.60
2023-01-21T22:21:31.957Z,3.70
2023-01-21T22:24:02.238Z,3.70
2023-01-21T22:26:29.939Z,3.70
2023-01-21T22:28:56.688Z,3.70
2023-01-21T22:31:25.795Z,3.70
2023-01-21T22:33:53.267Z,3.70
2023-01-21T22:36:22.087Z,3.70
2023-01-21T22:38:49.653Z,3.70
2023-01-21T22:41:18.901Z,3.70
2023-01-21T22:43:48.948Z,3.70
2023-01-21T22:46:25.881Z,3.70
2023-01-21T22:48:57.791Z,3.70
2023-01-21T22:51:24.850Z,3.70
2023-01-21T22:53:52.338Z,3.70
2023-01-21T22:56:25.387Z,3.70
2023-01-21T22:58:54.803Z,3.70
2023-01-21T23:01:35.441Z,3.70
2023-01-21T23:04:05.078Z,3.70
2023-01-21T23:06:31.993Z,3.70
2023-01-21T23:09:00.120Z,3.80
2023-01-21T23:11:28.215Z,3.80
2023-01-21T23:13:55.779Z,3.70
2023-01-21T23:16:24.187Z,3.70
2023-01-21T23:18:51.108Z,3.80
2023-01-21T23:21:22.057Z,3.80
2023-01-21T23:23:49.436Z,3.90
2023-01-21T23:26:18.715Z,3.90
2023-01-21T23:28:45.766Z,3.90
2023-01-21T23:31:14.817Z,3.90
2023-01-21T23:33:42.630Z,3.90
2023-01-21T23:36:12.891Z,3.90
2023-01-21T23:38:40.188Z,4.00
2023-01-21T23:41:09.381Z,4.00
2023-01-21T23:43:37.460Z,4.10
2023-01-21T23:46:06.109Z,4.10
2023-01-21T23:48:32.904Z,4.10
2023-01-21T23:51:11.552Z,4.00
2023-01-21T23:53:38.345Z,4.10
2023-01-21T23:56:14.068Z,4.10
2023-01-21T23:58:41.059Z,4.00
